sensor_id;sensor_type;location;lat;lon;timestamp;P1;durP1;ratioP1;P2;durP2;ratioP2
18883;SDS011;9574;47.282;9.640;2022-09-28T00:00:41;1.13;;;1.03;;
18883;SDS011;9574;47.282;9.640;2022-09-28T00:03:11;1.30;;;1.17;;
18883;SDS011;9574;47.282;9.640;2022-09-28T00:05:38;3.10;;;1.17;;
18883;SDS011;9574;47.282;9.640;2022-09-28T00:08:05;1.10;;;1.00;;
18883;SDS011;9574;47.282;9.640;2022-09-28T00:10:34;1.30;;;1.03;;
18883;SDS011;9574;47.282;9.640;2022-09-28T00:13:01;1.90;;;1.33;;
18883;SDS011;9574;47.282;9.640;2022-09-28T00:15:28;1.27;;;1.10;;
18883;SDS011;9574;47.282;9.640;2022-09-28T00:17:55;1.30;;;1.20;;
18883;SDS011;9574;47.282;9.640;2022-09-28T00:20:22;1.20;;;1.10;;
18883;SDS011;9574;47.282;9.640;2022-09-28T00:22:49;1.47;;;1.03;;
18883;SDS011;9574;47.282;9.640;2022-09-28T00:25:16;1.80;;;1.30;;
18883;SDS011;9574;47.282;9.640;2022-09-28T00:27:49;1.00;;;1.00;;
18883;SDS011;9574;47.282;9.640;2022-09-28T00:30:16;1.37;;;1.20;;
18883;SDS011;9574;47.282;9.640;2022-09-28T00:32:43;1.47;;;1.30;;
18883;SDS011;9574;47.282;9.640;2022-09-28T00:35:10;2.70;;;1.23;;
18883;SDS011;9574;47.282;9.640;2022-09-28T00:37:37;1.83;;;1.13;;
18883;SDS011;9574;47.282;9.640;2022-09-28T00:40:05;1.17;;;1.07;;
18883;SDS011;9574;47.282;9.640;2022-09-28T00:42:32;1.30;;;1.20;;
18883;SDS011;9574;47.282;9.640;2022-09-28T00:45:01;1.37;;;1.20;;
18883;SDS011;9574;47.282;9.640;2022-09-28T00:47:39;1.43;;;1.33;;
18883;SDS011;9574;47.282;9.640;2022-09-28T00:50:15;0.90;;;0.90;;
18883;SDS011;9574;47.282;9.640;2022-09-28T00:52:47;1.47;;;0.97;;
18883;SDS011;9574;47.282;9.640;2022-09-28T00:55:18;1.03;;;1.03;;
18883;SDS011;9574;47.282;9.640;2022-09-28T00:57:50;0.73;;;0.73;;
18883;SDS011;9574;47.282;9.640;2022-09-28T01:00:22;1.07;;;0.80;;
18883;SDS011;9574;47.282;9.640;2022-09-28T01:02:49;1.00;;;0.90;;
18883;SDS011;9574;47.282;9.640;2022-09-28T01:05:17;0.77;;;0.77;;
18883;SDS011;9574;47.282;9.640;2022-09-28T01:07:45;1.20;;;1.10;;
18883;SDS011;9574;47.282;9.640;2022-09-28T01:10:13;0.90;;;0.90;;
18883;SDS011;9574;47.282;9.640;2022-09-28T01:12:41;0.80;;;0.80;;
18883;SDS011;9574;47.282;9.640;2022-09-28T01:15:08;2.10;;;1.23;;
18883;SDS011;9574;47.282;9.640;2022-09-28T01:17:45;1.30;;;1.20;;
18883;SDS011;9574;47.282;9.640;2022-09-28T01:20:25;1.03;;;1.00;;
18883;SDS011;9574;47.282;9.640;2022-09-28T01:23:14;0.93;;;0.93;;
18883;SDS011;9574;47.282;9.640;2022-09-28T01:26:15;0.87;;;0.87;;
18883;SDS011;9574;47.282;9.640;2022-09-28T01:29:05;1.47;;;1.10;;
18883;SDS011;9574;47.282;9.640;2022-09-28T01:31:42;1.27;;;1.17;;
18883;SDS011;9574;47.282;9.640;2022-09-28T01:34:13;4.40;;;1.73;;
18883;SDS011;9574;47.282;9.640;2022-09-28T01:36:44;1.17;;;1.07;;
18883;SDS011;9574;47.282;9.640;2022-09-28T01:39:15;7.23;;;1.50;;
18883;SDS011;9574;47.282;9.640;2022-09-28T01:41:47;1.00;;;1.00;;
18883;SDS011;9574;47.282;9.640;2022-09-28T01:44:18;1.00;;;1.00;;
18883;SDS011;9574;47.282;9.640;2022-09-28T01:46:48;0.90;;;0.90;;
18883;SDS011;9574;47.282;9.640;2022-09-28T01:49:17;1.00;;;1.00;;
18883;SDS011;9574;47.282;9.640;2022-09-28T01:51:50;1.13;;;0.90;;
18883;SDS011;9574;47.282;9.640;2022-09-28T01:54:21;1.33;;;1.10;;
18883;SDS011;9574;47.282;9.640;2022-09-28T01:56:56;1.07;;;1.07;;
18883;SDS011;9574;47.282;9.640;2022-09-28T01:59:27;1.30;;;1.20;;
18883;SDS011;9574;47.282;9.640;2022-09-28T02:01:58;2.20;;;1.40;;
18883;SDS011;9574;47.282;9.640;2022-09-28T02:04:30;1.47;;;1.37;;
18883;SDS011;9574;47.282;9.640;2022-09-28T02:07:02;1.43;;;1.27;;
18883;SDS011;9574;47.282;9.640;2022-09-28T02:09:34;1.60;;;1.37;;
18883;SDS011;9574;47.282;9.640;2022-09-28T02:12:06;2.40;;;1.37;;
18883;SDS011;9574;47.282;9.640;2022-09-28T02:14:37;1.27;;;1.17;;
18883;SDS011;9574;47.282;9.640;2022-09-28T02:17:05;2.40;;;1.40;;
18883;SDS011;9574;47.282;9.640;2022-09-28T02:19:34;1.40;;;1.30;;
18883;SDS011;9574;47.282;9.640;2022-09-28T02:22:05;1.40;;;1.30;;
18883;SDS011;9574;47.282;9.640;2022-09-28T02:24:39;1.37;;;1.27;;
18883;SDS011;9574;47.282;9.640;2022-09-28T02:27:11;1.10;;;1.10;;
18883;SDS011;9574;47.282;9.640;2022-09-28T02:29:40;1.33;;;1.23;;
18883;SDS011;9574;47.282;9.640;2022-09-28T02:32:07;1.10;;;1.10;;
18883;SDS011;9574;47.282;9.640;2022-09-28T02:34:34;0.90;;;0.90;;
18883;SDS011;9574;47.282;9.640;2022-09-28T02:37:01;1.20;;;1.10;;
18883;SDS011;9574;47.282;9.640;2022-09-28T02:39:28;0.80;;;0.80;;
18883;SDS011;9574;47.282;9.640;2022-09-28T02:42:00;1.83;;;1.03;;
18883;SDS011;9574;47.282;9.640;2022-09-28T02:44:50;0.97;;;0.93;;
18883;SDS011;9574;47.282;9.640;2022-09-28T02:47:33;1.03;;;1.03;;
18883;SDS011;9574;47.282;9.640;2022-09-28T02:50:14;1.13;;;1.03;;
18883;SDS011;9574;47.282;9.640;2022-09-28T02:52:53;1.20;;;1.03;;
18883;SDS011;9574;47.282;9.640;2022-09-28T02:55:41;1.30;;;1.00;;
18883;SDS011;9574;47.282;9.640;2022-09-28T02:58:19;1.00;;;1.00;;
18883;SDS011;9574;47.282;9.640;2022-09-28T03:00:58;1.77;;;1.30;;
18883;SDS011;9574;47.282;9.640;2022-09-28T03:03:33;1.33;;;1.10;;
18883;SDS011;9574;47.282;9.640;2022-09-28T03:06:08;1.00;;;1.00;;
18883;SDS011;9574;47.282;9.640;2022-09-28T03:08:41;1.20;;;1.10;;
18883;SDS011;9574;47.282;9.640;2022-09-28T03:11:11;1.10;;;1.00;;
18883;SDS011;9574;47.282;9.640;2022-09-28T03:13:43;1.20;;;1.10;;
18883;SDS011;9574;47.282;9.640;2022-09-28T03:16:12;3.70;;;1.10;;
18883;SDS011;9574;47.282;9.640;2022-09-28T03:18:40;1.13;;;1.00;;
18883;SDS011;9574;47.282;9.640;2022-09-28T03:21:08;1.00;;;1.00;;
18883;SDS011;9574;47.282;9.640;2022-09-28T03:23:37;0.80;;;0.80;;
18883;SDS011;9574;47.282;9.640;2022-09-28T03:26:05;0.87;;;0.87;;
18883;SDS011;9574;47.282;9.640;2022-09-28T03:28:33;1.37;;;1.13;;
18883;SDS011;9574;47.282;9.640;2022-09-28T03:31:00;1.20;;;1.10;;
18883;SDS011;9574;47.282;9.640;2022-09-28T03:33:29;1.63;;;1.10;;
18883;SDS011;9574;47.282;9.640;2022-09-28T03:35:56;0.90;;;0.90;;
18883;SDS011;9574;47.282;9.640;2022-09-28T03:38:23;1.53;;;1.40;;
18883;SDS011;9574;47.282;9.640;2022-09-28T03:40:53;0.83;;;0.80;;
18883;SDS011;9574;47.282;9.640;2022-09-28T03:43:21;1.10;;;1.00;;
18883;SDS011;9574;47.282;9.640;2022-09-28T03:45:52;1.00;;;1.00;;
18883;SDS011;9574;47.282;9.640;2022-09-28T03:48:21;0.80;;;0.80;;
18883;SDS011;9574;47.282;9.640;2022-09-28T03:50:52;1.10;;;1.00;;
18883;SDS011;9574;47.282;9.640;2022-09-28T03:53:19;1.17;;;1.00;;
18883;SDS011;9574;47.282;9.640;2022-09-28T03:55:46;0.80;;;0.80;;
18883;SDS011;9574;47.282;9.640;2022-09-28T03:58:14;1.00;;;0.90;;
18883;SDS011;9574;47.282;9.640;2022-09-28T04:00:41;0.83;;;0.73;;
18883;SDS011;9574;47.282;9.640;2022-09-28T04:03:08;1.20;;;0.90;;
18883;SDS011;9574;47.282;9.640;2022-09-28T04:05:35;0.90;;;0.90;;
18883;SDS011;9574;47.282;9.640;2022-09-28T04:08:03;0.70;;;0.70;;
18883;SDS011;9574;47.282;9.640;2022-09-28T04:10:30;1.00;;;1.00;;
18883;SDS011;9574;47.282;9.640;2022-09-28T04:12:57;0.80;;;0.80;;
18883;SDS011;9574;47.282;9.640;2022-09-28T04:15:24;1.33;;;0.90;;
18883;SDS011;9574;47.282;9.640;2022-09-28T04:17:51;0.80;;;0.80;;
18883;SDS011;9574;47.282;9.640;2022-09-28T04:20:18;1.10;;;1.00;;
18883;SDS011;9574;47.282;9.640;2022-09-28T04:22:46;0.83;;;0.77;;
18883;SDS011;9574;47.282;9.640;2022-09-28T04:25:14;1.30;;;1.20;;
18883;SDS011;9574;47.282;9.640;2022-09-28T04:27:42;2.53;;;0.93;;
18883;SDS011;9574;47.282;9.640;2022-09-28T04:30:26;1.60;;;1.00;;
18883;SDS011;9574;47.282;9.640;2022-09-28T04:32:53;0.80;;;0.80;;
18883;SDS011;9574;47.282;9.640;2022-09-28T04:35:20;0.90;;;0.90;;
18883;SDS011;9574;47.282;9.640;2022-09-28T04:37:47;2.60;;;1.03;;
18883;SDS011;9574;47.282;9.640;2022-09-28T04:40:15;1.20;;;1.20;;
18883;SDS011;9574;47.282;9.640;2022-09-28T04:42:42;1.47;;;1.23;;
18883;SDS011;9574;47.282;9.640;2022-09-28T04:45:09;0.93;;;0.87;;
18883;SDS011;9574;47.282;9.640;2022-09-28T04:47:36;0.90;;;0.90;;
18883;SDS011;9574;47.282;9.640;2022-09-28T04:50:03;1.13;;;1.03;;
18883;SDS011;9574;47.282;9.640;2022-09-28T04:52:31;0.87;;;0.87;;
18883;SDS011;9574;47.282;9.640;2022-09-28T04:55:00;2.77;;;0.90;;
18883;SDS011;9574;47.282;9.640;2022-09-28T04:57:29;0.90;;;0.90;;
18883;SDS011;9574;47.282;9.640;2022-09-28T04:59:55;1.13;;;1.03;;
18883;SDS011;9574;47.282;9.640;2022-09-28T05:02:22;1.20;;;1.10;;
18883;SDS011;9574;47.282;9.640;2022-09-28T05:04:49;1.00;;;0.90;;
18883;SDS011;9574;47.282;9.640;2022-09-28T05:07:17;1.80;;;1.30;;
18883;SDS011;9574;47.282;9.640;2022-09-28T05:09:44;0.90;;;0.90;;
18883;SDS011;9574;47.282;9.640;2022-09-28T05:12:11;1.67;;;1.00;;
18883;SDS011;9574;47.282;9.640;2022-09-28T05:14:39;2.20;;;0.90;;
18883;SDS011;9574;47.282;9.640;2022-09-28T05:17:06;4.53;;;0.80;;
18883;SDS011;9574;47.282;9.640;2022-09-28T05:19:34;0.77;;;0.77;;
18883;SDS011;9574;47.282;9.640;2022-09-28T05:22:01;0.90;;;0.80;;
18883;SDS011;9574;47.282;9.640;2022-09-28T05:24:30;0.80;;;0.80;;
18883;SDS011;9574;47.282;9.640;2022-09-28T05:26:57;0.80;;;0.80;;
18883;SDS011;9574;47.282;9.640;2022-09-28T05:29:24;0.70;;;0.70;;
18883;SDS011;9574;47.282;9.640;2022-09-28T05:31:52;1.77;;;1.10;;
18883;SDS011;9574;47.282;9.640;2022-09-28T05:34:19;1.10;;;0.87;;
18883;SDS011;9574;47.282;9.640;2022-09-28T05:36:46;0.73;;;0.73;;
18883;SDS011;9574;47.282;9.640;2022-09-28T05:39:13;0.60;;;0.60;;
18883;SDS011;9574;47.282;9.640;2022-09-28T05:41:40;0.70;;;0.70;;
18883;SDS011;9574;47.282;9.640;2022-09-28T05:44:07;1.33;;;0.90;;
18883;SDS011;9574;47.282;9.640;2022-09-28T05:46:34;1.10;;;0.90;;
18883;SDS011;9574;47.282;9.640;2022-09-28T05:49:02;1.30;;;1.00;;
18883;SDS011;9574;47.282;9.640;2022-09-28T05:51:29;5.30;;;1.90;;
18883;SDS011;9574;47.282;9.640;2022-09-28T05:53:56;3.43;;;1.43;;
18883;SDS011;9574;47.282;9.640;2022-09-28T05:56:23;1.50;;;1.40;;
18883;SDS011;9574;47.282;9.640;2022-09-28T05:58:50;1.80;;;1.70;;
18883;SDS011;9574;47.282;9.640;2022-09-28T06:01:17;2.17;;;1.97;;
18883;SDS011;9574;47.282;9.640;2022-09-28T06:03:44;1.67;;;1.10;;
18883;SDS011;9574;47.282;9.640;2022-09-28T06:06:12;1.40;;;1.30;;
18883;SDS011;9574;47.282;9.640;2022-09-28T06:08:39;1.20;;;1.10;;
18883;SDS011;9574;47.282;9.640;2022-09-28T06:11:07;3.20;;;2.20;;
18883;SDS011;9574;47.282;9.640;2022-09-28T06:13:36;1.60;;;1.50;;
18883;SDS011;9574;47.282;9.640;2022-09-28T06:16:04;1.80;;;1.30;;
18883;SDS011;9574;47.282;9.640;2022-09-28T06:18:33;1.37;;;1.27;;
18883;SDS011;9574;47.282;9.640;2022-09-28T06:20:59;1.33;;;1.20;;
18883;SDS011;9574;47.282;9.640;2022-09-28T06:23:28;3.50;;;2.10;;
18883;SDS011;9574;47.282;9.640;2022-09-28T06:25:57;1.83;;;1.50;;
18883;SDS011;9574;47.282;9.640;2022-09-28T06:28:24;2.30;;;1.27;;
18883;SDS011;9574;47.282;9.640;2022-09-28T06:30:52;0.90;;;0.90;;
18883;SDS011;9574;47.282;9.640;2022-09-28T06:33:19;1.80;;;1.30;;
18883;SDS011;9574;47.282;9.640;2022-09-28T06:35:46;2.50;;;1.87;;
18883;SDS011;9574;47.282;9.640;2022-09-28T06:38:13;1.80;;;1.70;;
18883;SDS011;9574;47.282;9.640;2022-09-28T06:40:41;1.50;;;1.40;;
18883;SDS011;9574;47.282;9.640;2022-09-28T06:43:08;4.53;;;1.53;;
18883;SDS011;9574;47.282;9.640;2022-09-28T06:45:38;1.13;;;1.03;;
18883;SDS011;9574;47.282;9.640;2022-09-28T06:48:06;1.80;;;1.50;;
18883;SDS011;9574;47.282;9.640;2022-09-28T06:50:36;1.83;;;1.47;;
18883;SDS011;9574;47.282;9.640;2022-09-28T06:53:05;2.60;;;1.80;;
18883;SDS011;9574;47.282;9.640;2022-09-28T06:55:37;2.60;;;1.70;;
18883;SDS011;9574;47.282;9.640;2022-09-28T06:58:06;2.07;;;1.63;;
18883;SDS011;9574;47.282;9.640;2022-09-28T07:00:35;2.47;;;2.00;;
18883;SDS011;9574;47.282;9.640;2022-09-28T07:03:04;3.53;;;1.73;;
18883;SDS011;9574;47.282;9.640;2022-09-28T07:05:33;2.00;;;1.80;;
18883;SDS011;9574;47.282;9.640;2022-09-28T07:08:02;2.07;;;1.90;;
18883;SDS011;9574;47.282;9.640;2022-09-28T07:10:30;2.53;;;1.53;;
18883;SDS011;9574;47.282;9.640;2022-09-28T07:12:58;1.33;;;1.23;;
18883;SDS011;9574;47.282;9.640;2022-09-28T07:15:29;1.30;;;1.20;;
18883;SDS011;9574;47.282;9.640;2022-09-28T07:17:57;2.00;;;1.60;;
18883;SDS011;9574;47.282;9.640;2022-09-28T07:20:24;1.43;;;1.33;;
18883;SDS011;9574;47.282;9.640;2022-09-28T07:22:52;3.30;;;1.10;;
18883;SDS011;9574;47.282;9.640;2022-09-28T07:25:19;1.97;;;0.93;;
18883;SDS011;9574;47.282;9.640;2022-09-28T07:27:46;2.00;;;1.30;;
18883;SDS011;9574;47.282;9.640;2022-09-28T07:30:13;1.07;;;1.07;;
18883;SDS011;9574;47.282;9.640;2022-09-28T07:32:42;1.30;;;1.20;;
18883;SDS011;9574;47.282;9.640;2022-09-28T07:35:10;2.67;;;1.60;;
18883;SDS011;9574;47.282;9.640;2022-09-28T07:37:37;2.17;;;1.87;;
18883;SDS011;9574;47.282;9.640;2022-09-28T07:40:05;4.23;;;2.90;;
18883;SDS011;9574;47.282;9.640;2022-09-28T07:42:50;5.00;;;1.27;;
18883;SDS011;9574;47.282;9.640;2022-09-28T07:45:18;1.70;;;1.60;;
18883;SDS011;9574;47.282;9.640;2022-09-28T07:47:49;2.30;;;1.33;;
18883;SDS011;9574;47.282;9.640;2022-09-28T07:50:16;1.33;;;1.23;;
18883;SDS011;9574;47.282;9.640;2022-09-28T07:52:43;1.67;;;1.30;;
18883;SDS011;9574;47.282;9.640;2022-09-28T07:55:10;1.40;;;1.30;;
18883;SDS011;9574;47.282;9.640;2022-09-28T07:57:37;1.10;;;1.00;;
18883;SDS011;9574;47.282;9.640;2022-09-28T08:00:04;1.00;;;1.00;;
18883;SDS011;9574;47.282;9.640;2022-09-28T08:02:33;1.30;;;1.20;;
18883;SDS011;9574;47.282;9.640;2022-09-28T08:05:01;1.47;;;1.37;;
18883;SDS011;9574;47.282;9.640;2022-09-28T08:07:28;2.57;;;1.60;;
18883;SDS011;9574;47.282;9.640;2022-09-28T08:09:56;2.53;;;1.70;;
18883;SDS011;9574;47.282;9.640;2022-09-28T08:12:23;2.57;;;1.87;;
18883;SDS011;9574;47.282;9.640;2022-09-28T08:14:50;1.73;;;1.33;;
18883;SDS011;9574;47.282;9.640;2022-09-28T08:17:17;1.67;;;1.57;;
18883;SDS011;9574;47.282;9.640;2022-09-28T08:19:44;2.00;;;1.40;;
18883;SDS011;9574;47.282;9.640;2022-09-28T08:22:29;2.17;;;1.53;;
18883;SDS011;9574;47.282;9.640;2022-09-28T08:24:57;2.10;;;1.60;;
18883;SDS011;9574;47.282;9.640;2022-09-28T08:27:23;3.07;;;2.17;;
18883;SDS011;9574;47.282;9.640;2022-09-28T08:29:50;2.10;;;1.90;;
18883;SDS011;9574;47.282;9.640;2022-09-28T08:32:17;3.07;;;2.10;;
18883;SDS011;9574;47.282;9.640;2022-09-28T08:34:45;3.60;;;2.53;;
18883;SDS011;9574;47.282;9.640;2022-09-28T08:37:12;6.40;;;2.73;;
18883;SDS011;9574;47.282;9.640;2022-09-28T08:39:40;4.63;;;2.77;;
18883;SDS011;9574;47.282;9.640;2022-09-28T08:42:14;3.47;;;2.20;;
18883;SDS011;9574;47.282;9.640;2022-09-28T08:44:51;4.97;;;3.00;;
18883;SDS011;9574;47.282;9.640;2022-09-28T08:47:23;4.57;;;3.20;;
18883;SDS011;9574;47.282;9.640;2022-09-28T08:50:12;3.07;;;2.67;;
18883;SDS011;9574;47.282;9.640;2022-09-28T08:52:42;4.17;;;2.67;;
18883;SDS011;9574;47.282;9.640;2022-09-28T08:55:15;4.23;;;2.80;;
18883;SDS011;9574;47.282;9.640;2022-09-28T08:57:50;4.40;;;3.03;;
18883;SDS011;9574;47.282;9.640;2022-09-28T09:00:26;3.40;;;2.50;;
18883;SDS011;9574;47.282;9.640;2022-09-28T09:02:58;2.97;;;2.23;;
18883;SDS011;9574;47.282;9.640;2022-09-28T09:05:34;3.43;;;2.80;;
18883;SDS011;9574;47.282;9.640;2022-09-28T09:08:20;2.90;;;2.60;;
18883;SDS011;9574;47.282;9.640;2022-09-28T09:10:57;3.43;;;2.10;;
18883;SDS011;9574;47.282;9.640;2022-09-28T09:13:42;4.00;;;2.63;;
18883;SDS011;9574;47.282;9.640;2022-09-28T09:16:44;2.20;;;1.73;;
18883;SDS011;9574;47.282;9.640;2022-09-28T09:19:26;1.70;;;1.43;;
18883;SDS011;9574;47.282;9.640;2022-09-28T09:22:02;3.33;;;1.90;;
18883;SDS011;9574;47.282;9.640;2022-09-28T09:24:37;2.27;;;1.83;;
18883;SDS011;9574;47.282;9.640;2022-09-28T09:27:17;3.13;;;1.90;;
18883;SDS011;9574;47.282;9.640;2022-09-28T09:30:04;3.30;;;2.07;;
18883;SDS011;9574;47.282;9.640;2022-09-28T09:32:41;2.13;;;1.80;;
18883;SDS011;9574;47.282;9.640;2022-09-28T09:35:26;2.20;;;1.90;;
18883;SDS011;9574;47.282;9.640;2022-09-28T09:38:31;8.33;;;7.43;;
18883;SDS011;9574;47.282;9.640;2022-09-28T09:41:13;6.53;;;5.07;;
18883;SDS011;9574;47.282;9.640;2022-09-28T09:43:51;3.30;;;2.50;;
18883;SDS011;9574;47.282;9.640;2022-09-28T09:46:31;2.00;;;1.80;;
18883;SDS011;9574;47.282;9.640;2022-09-28T09:49:03;4.27;;;2.43;;
18883;SDS011;9574;47.282;9.640;2022-09-28T09:51:36;3.10;;;1.90;;
18883;SDS011;9574;47.282;9.640;2022-09-28T09:54:10;2.60;;;2.00;;
18883;SDS011;9574;47.282;9.640;2022-09-28T09:56:46;6.77;;;2.30;;
18883;SDS011;9574;47.282;9.640;2022-09-28T09:59:20;3.20;;;1.87;;
18883;SDS011;9574;47.282;9.640;2022-09-28T10:01:50;2.03;;;1.77;;
18883;SDS011;9574;47.282;9.640;2022-09-28T10:04:22;3.40;;;2.60;;
18883;SDS011;9574;47.282;9.640;2022-09-28T10:06:51;6.70;;;5.30;;
18883;SDS011;9574;47.282;9.640;2022-09-28T10:09:23;2.50;;;2.10;;
18883;SDS011;9574;47.282;9.640;2022-09-28T10:11:55;1.57;;;1.47;;
18883;SDS011;9574;47.282;9.640;2022-09-28T10:14:28;2.27;;;1.60;;
18883;SDS011;9574;47.282;9.640;2022-09-28T10:16:57;6.27;;;3.80;;
18883;SDS011;9574;47.282;9.640;2022-09-28T10:19:28;3.47;;;3.17;;
18883;SDS011;9574;47.282;9.640;2022-09-28T10:21:57;3.40;;;1.87;;
18883;SDS011;9574;47.282;9.640;2022-09-28T10:24:27;1.97;;;1.77;;
18883;SDS011;9574;47.282;9.640;2022-09-28T10:27:02;1.80;;;1.70;;
18883;SDS011;9574;47.282;9.640;2022-09-28T10:29:36;1.57;;;1.47;;
18883;SDS011;9574;47.282;9.640;2022-09-28T10:32:18;1.47;;;1.37;;
18883;SDS011;9574;47.282;9.640;2022-09-28T10:34:47;1.53;;;1.20;;
18883;SDS011;9574;47.282;9.640;2022-09-28T10:37:14;1.93;;;1.77;;
18883;SDS011;9574;47.282;9.640;2022-09-28T10:39:44;2.10;;;1.60;;
18883;SDS011;9574;47.282;9.640;2022-09-28T10:42:17;1.90;;;1.73;;
18883;SDS011;9574;47.282;9.640;2022-09-28T10:44:51;2.10;;;1.90;;
18883;SDS011;9574;47.282;9.640;2022-09-28T10:47:22;3.80;;;2.07;;
18883;SDS011;9574;47.282;9.640;2022-09-28T10:49:51;1.93;;;1.53;;
18883;SDS011;9574;47.282;9.640;2022-09-28T10:52:29;2.40;;;1.70;;
18883;SDS011;9574;47.282;9.640;2022-09-28T10:55:02;2.87;;;1.67;;
18883;SDS011;9574;47.282;9.640;2022-09-28T10:57:49;1.60;;;1.50;;
18883;SDS011;9574;47.282;9.640;2022-09-28T11:00:29;2.90;;;1.90;;
18883;SDS011;9574;47.282;9.640;2022-09-28T11:02:59;2.60;;;1.93;;
18883;SDS011;9574;47.282;9.640;2022-09-28T11:05:27;2.47;;;1.87;;
18883;SDS011;9574;47.282;9.640;2022-09-28T11:07:54;2.10;;;1.60;;
18883;SDS011;9574;47.282;9.640;2022-09-28T11:10:25;2.40;;;2.20;;
18883;SDS011;9574;47.282;9.640;2022-09-28T11:12:54;2.13;;;1.93;;
18883;SDS011;9574;47.282;9.640;2022-09-28T11:15:24;1.77;;;1.67;;
18883;SDS011;9574;47.282;9.640;2022-09-28T11:17:54;2.50;;;1.60;;
18883;SDS011;9574;47.282;9.640;2022-09-28T11:20:28;2.43;;;1.73;;
18883;SDS011;9574;47.282;9.640;2022-09-28T11:23:00;2.37;;;1.60;;
18883;SDS011;9574;47.282;9.640;2022-09-28T11:25:54;2.20;;;1.70;;
18883;SDS011;9574;47.282;9.640;2022-09-28T11:28:23;3.83;;;1.50;;
18883;SDS011;9574;47.282;9.640;2022-09-28T11:30:57;2.07;;;1.70;;
18883;SDS011;9574;47.282;9.640;2022-09-28T11:33:27;2.97;;;1.80;;
18883;SDS011;9574;47.282;9.640;2022-09-28T11:36:00;2.80;;;1.57;;
18883;SDS011;9574;47.282;9.640;2022-09-28T11:38:44;2.17;;;1.50;;
18883;SDS011;9574;47.282;9.640;2022-09-28T11:41:23;5.17;;;1.07;;
18883;SDS011;9574;47.282;9.640;2022-09-28T11:44:19;1.87;;;1.70;;
18883;SDS011;9574;47.282;9.640;2022-09-28T11:46:58;3.37;;;1.70;;
18883;SDS011;9574;47.282;9.640;2022-09-28T11:49:36;1.67;;;1.57;;
18883;SDS011;9574;47.282;9.640;2022-09-28T11:52:09;0.93;;;0.90;;
18883;SDS011;9574;47.282;9.640;2022-09-28T11:54:44;1.50;;;0.90;;
18883;SDS011;9574;47.282;9.640;2022-09-28T11:57:19;1.87;;;1.20;;
18883;SDS011;9574;47.282;9.640;2022-09-28T11:59:54;3.77;;;1.07;;
18883;SDS011;9574;47.282;9.640;2022-09-28T12:02:24;1.77;;;1.10;;
18883;SDS011;9574;47.282;9.640;2022-09-28T12:04:57;1.43;;;1.20;;
18883;SDS011;9574;47.282;9.640;2022-09-28T12:07:28;2.57;;;1.60;;
18883;SDS011;9574;47.282;9.640;2022-09-28T12:10:01;1.13;;;1.00;;
18883;SDS011;9574;47.282;9.640;2022-09-28T12:12:36;1.13;;;1.00;;
18883;SDS011;9574;47.282;9.640;2022-09-28T12:15:12;1.30;;;1.23;;
18883;SDS011;9574;47.282;9.640;2022-09-28T12:17:42;0.93;;;0.90;;
18883;SDS011;9574;47.282;9.640;2022-09-28T12:20:17;1.33;;;0.90;;
18883;SDS011;9574;47.282;9.640;2022-09-28T12:22:48;0.80;;;0.80;;
18883;SDS011;9574;47.282;9.640;2022-09-28T12:25:24;1.03;;;0.97;;
18883;SDS011;9574;47.282;9.640;2022-09-28T12:27:55;0.97;;;0.87;;
18883;SDS011;9574;47.282;9.640;2022-09-28T12:30:25;0.90;;;0.90;;
18883;SDS011;9574;47.282;9.640;2022-09-28T12:33:00;1.00;;;0.70;;
18883;SDS011;9574;47.282;9.640;2022-09-28T12:35:37;2.43;;;1.60;;
18883;SDS011;9574;47.282;9.640;2022-09-28T12:38:23;1.10;;;1.10;;
18883;SDS011;9574;47.282;9.640;2022-09-28T12:40:59;1.67;;;1.00;;
18883;SDS011;9574;47.282;9.640;2022-09-28T12:46:31;0.90;;;0.90;;
18883;SDS011;9574;47.282;9.640;2022-09-28T12:49:20;1.87;;;1.40;;
18883;SDS011;9574;47.282;9.640;2022-09-28T12:51:57;2.27;;;1.40;;
18883;SDS011;9574;47.282;9.640;2022-09-28T12:54:32;1.13;;;1.03;;
18883;SDS011;9574;47.282;9.640;2022-09-28T13:00:07;1.10;;;1.10;;
18883;SDS011;9574;47.282;9.640;2022-09-28T13:05:59;1.27;;;1.00;;
18883;SDS011;9574;47.282;9.640;2022-09-28T13:08:50;1.17;;;1.07;;
18883;SDS011;9574;47.282;9.640;2022-09-28T13:11:28;0.93;;;0.93;;
18883;SDS011;9574;47.282;9.640;2022-09-28T13:14:03;0.70;;;0.70;;
18883;SDS011;9574;47.282;9.640;2022-09-28T13:16:48;1.30;;;1.03;;
18883;SDS011;9574;47.282;9.640;2022-09-28T13:19:23;3.87;;;3.17;;
18883;SDS011;9574;47.282;9.640;2022-09-28T13:22:03;1.20;;;1.10;;
18883;SDS011;9574;47.282;9.640;2022-09-28T13:24:41;2.17;;;1.40;;
18883;SDS011;9574;47.282;9.640;2022-09-28T13:27:12;0.90;;;0.90;;
18883;SDS011;9574;47.282;9.640;2022-09-28T13:29:43;0.80;;;0.80;;
18883;SDS011;9574;47.282;9.640;2022-09-28T13:32:14;1.20;;;1.10;;
18883;SDS011;9574;47.282;9.640;2022-09-28T13:34:46;3.30;;;1.33;;
18883;SDS011;9574;47.282;9.640;2022-09-28T13:37:19;2.07;;;1.73;;
18883;SDS011;9574;47.282;9.640;2022-09-28T13:39:50;2.00;;;1.80;;
18883;SDS011;9574;47.282;9.640;2022-09-28T13:45:27;5.53;;;2.40;;
18883;SDS011;9574;47.282;9.640;2022-09-28T13:48:18;2.60;;;1.73;;
18883;SDS011;9574;47.282;9.640;2022-09-28T13:53:52;1.97;;;1.70;;
18883;SDS011;9574;47.282;9.640;2022-09-28T13:56:35;2.47;;;1.87;;
18883;SDS011;9574;47.282;9.640;2022-09-28T13:59:10;2.00;;;1.53;;
18883;SDS011;9574;47.282;9.640;2022-09-28T14:01:48;2.43;;;1.70;;
18883;SDS011;9574;47.282;9.640;2022-09-28T14:04:20;2.13;;;1.47;;
18883;SDS011;9574;47.282;9.640;2022-09-28T14:06:52;1.37;;;1.20;;
18883;SDS011;9574;47.282;9.640;2022-09-28T14:12:27;3.70;;;1.10;;
18883;SDS011;9574;47.282;9.640;2022-09-28T14:18:20;1.57;;;1.30;;
18883;SDS011;9574;47.282;9.640;2022-09-28T14:21:00;1.67;;;1.20;;
18883;SDS011;9574;47.282;9.640;2022-09-28T14:23:49;1.37;;;1.27;;
18883;SDS011;9574;47.282;9.640;2022-09-28T14:26:38;1.20;;;1.10;;
18883;SDS011;9574;47.282;9.640;2022-09-28T14:29:32;1.00;;;0.90;;
18883;SDS011;9574;47.282;9.640;2022-09-28T14:32:03;2.03;;;1.70;;
18883;SDS011;9574;47.282;9.640;2022-09-28T14:34:46;0.90;;;0.90;;
18883;SDS011;9574;47.282;9.640;2022-09-28T14:37:21;1.00;;;1.00;;
18883;SDS011;9574;47.282;9.640;2022-09-28T14:40:15;1.00;;;1.00;;
18883;SDS011;9574;47.282;9.640;2022-09-28T14:43:18;0.77;;;0.77;;
18883;SDS011;9574;47.282;9.640;2022-09-28T14:45:50;0.90;;;0.90;;
18883;SDS011;9574;47.282;9.640;2022-09-28T14:48:22;0.70;;;0.70;;
18883;SDS011;9574;47.282;9.640;2022-09-28T14:54:22;1.37;;;0.90;;
18883;SDS011;9574;47.282;9.640;2022-09-28T14:56:54;0.60;;;0.60;;
18883;SDS011;9574;47.282;9.640;2022-09-28T14:59:37;0.63;;;0.63;;
18883;SDS011;9574;47.282;9.640;2022-09-28T15:02:11;0.80;;;0.80;;
18883;SDS011;9574;47.282;9.640;2022-09-28T15:04:51;0.73;;;0.73;;
18883;SDS011;9574;47.282;9.640;2022-09-28T15:07:24;0.90;;;0.90;;
18883;SDS011;9574;47.282;9.640;2022-09-28T15:09:54;0.70;;;0.70;;
18883;SDS011;9574;47.282;9.640;2022-09-28T15:12:23;0.60;;;0.60;;
18883;SDS011;9574;47.282;9.640;2022-09-28T15:14:53;1.57;;;1.47;;
18883;SDS011;9574;47.282;9.640;2022-09-28T15:17:23;1.10;;;1.10;;
18883;SDS011;9574;47.282;9.640;2022-09-28T15:19:55;0.70;;;0.70;;
18883;SDS011;9574;47.282;9.640;2022-09-28T15:22:36;0.60;;;0.60;;
18883;SDS011;9574;47.282;9.640;2022-09-28T15:25:11;1.10;;;1.00;;
18883;SDS011;9574;47.282;9.640;2022-09-28T15:27:39;1.60;;;1.10;;
18883;SDS011;9574;47.282;9.640;2022-09-28T15:30:20;1.77;;;1.33;;
18883;SDS011;9574;47.282;9.640;2022-09-28T15:32:51;0.80;;;0.70;;
18883;SDS011;9574;47.282;9.640;2022-09-28T15:35:21;0.60;;;0.60;;
18883;SDS011;9574;47.282;9.640;2022-09-28T15:37:50;0.60;;;0.60;;
18883;SDS011;9574;47.282;9.640;2022-09-28T15:40:20;0.90;;;0.90;;
18883;SDS011;9574;47.282;9.640;2022-09-28T15:42:54;2.63;;;1.20;;
18883;SDS011;9574;47.282;9.640;2022-09-28T15:45:23;1.07;;;0.97;;
18883;SDS011;9574;47.282;9.640;2022-09-28T15:47:54;1.07;;;1.07;;
18883;SDS011;9574;47.282;9.640;2022-09-28T15:50:45;1.33;;;0.90;;
18883;SDS011;9574;47.282;9.640;2022-09-28T15:53:29;1.10;;;1.00;;
18883;SDS011;9574;47.282;9.640;2022-09-28T15:55:59;1.17;;;1.07;;